sensor_id;sensor_type;location;lat;lon;timestamp;pressure;altitude;pressure_sealevel;temperature;humidity
19023;BME280;35226;48.606;8.858;2023-07-13T00:00:03;96309.28;;;23.91;61.56
19023;BME280;35226;48.606;8.858;2023-07-13T00:02:34;96311.22;;;24.02;62.12
19023;BME280;35226;48.606;8.858;2023-07-13T00:04:59;96313.88;;;24.13;60.65
19023;BME280;35226;48.606;8.858;2023-07-13T00:07:25;96304.50;;;23.86;62.12
19023;BME280;35226;48.606;8.858;2023-07-13T00:09:51;96308.09;;;24.06;60.97
19023;BME280;35226;48.606;8.858;2023-07-13T00:12:28;96299.25;;;24.33;58.21
19023;BME280;35226;48.606;8.858;2023-07-13T00:14:59;96301.22;;;24.20;59.18
19023;BME280;35226;48.606;8.858;2023-07-13T00:17:26;96303.22;;;24.06;60.58
19023;BME280;35226;48.606;8.858;2023-07-13T00:19:52;96303.00;;;24.23;59.58
19023;BME280;35226;48.606;8.858;2023-07-13T00:22:19;96296.66;;;24.17;59.99
19023;BME280;35226;48.606;8.858;2023-07-13T00:24:44;96294.13;;;24.51;57.48
19023;BME280;35226;48.606;8.858;2023-07-13T00:27:11;96291.97;;;24.19;58.99
19023;BME280;35226;48.606;8.858;2023-07-13T00:29:37;96293.13;;;24.11;58.47
19023;BME280;35226;48.606;8.858;2023-07-13T00:32:03;96293.47;;;24.26;58.30
19023;BME280;35226;48.606;8.858;2023-07-13T00:34:29;96288.19;;;24.36;57.22
19023;BME280;35226;48.606;8.858;2023-07-13T00:36:55;96293.84;;;24.36;57.03
19023;BME280;35226;48.606;8.858;2023-07-13T00:39:21;96294.16;;;24.32;57.40
19023;BME280;35226;48.606;8.858;2023-07-13T00:41:46;96297.47;;;24.12;57.67
19023;BME280;35226;48.606;8.858;2023-07-13T00:44:19;96302.38;;;24.30;57.09
19023;BME280;35226;48.606;8.858;2023-07-13T00:46:45;96307.97;;;24.36;57.32
19023;BME280;35226;48.606;8.858;2023-07-13T00:49:15;96308.53;;;24.10;59.41
19023;BME280;35226;48.606;8.858;2023-07-13T00:51:53;96303.84;;;24.18;58.55
19023;BME280;35226;48.606;8.858;2023-07-13T00:54:26;96304.03;;;24.20;58.82
19023;BME280;35226;48.606;8.858;2023-07-13T00:56:56;96311.06;;;24.13;58.75
19023;BME280;35226;48.606;8.858;2023-07-13T00:59:23;96309.19;;;24.21;57.92
19023;BME280;35226;48.606;8.858;2023-07-13T01:01:49;96309.69;;;24.39;56.01
19023;BME280;35226;48.606;8.858;2023-07-13T01:04:15;96303.38;;;24.32;55.85
19023;BME280;35226;48.606;8.858;2023-07-13T01:06:42;96300.78;;;24.16;56.52
19023;BME280;35226;48.606;8.858;2023-07-13T01:09:09;96304.28;;;24.41;54.96
19023;BME280;35226;48.606;8.858;2023-07-13T01:11:36;96303.84;;;24.37;55.33
19023;BME280;35226;48.606;8.858;2023-07-13T01:14:03;96297.59;;;24.25;57.88
19023;BME280;35226;48.606;8.858;2023-07-13T01:16:31;96307.72;;;24.15;58.50
19023;BME280;35226;48.606;8.858;2023-07-13T01:18:57;96306.41;;;24.16;58.64
19023;BME280;35226;48.606;8.858;2023-07-13T01:21:23;96306.72;;;24.12;58.11
19023;BME280;35226;48.606;8.858;2023-07-13T01:23:49;96311.16;;;24.08;59.26
19023;BME280;35226;48.606;8.858;2023-07-13T01:26:15;96304.41;;;23.92;61.55
19023;BME280;35226;48.606;8.858;2023-07-13T01:28:40;96303.59;;;23.97;60.83
19023;BME280;35226;48.606;8.858;2023-07-13T01:31:07;96300.78;;;23.97;61.59
19023;BME280;35226;48.606;8.858;2023-07-13T01:33:33;96308.00;;;23.92;59.72
19023;BME280;35226;48.606;8.858;2023-07-13T01:36:00;96308.66;;;23.80;60.92
19023;BME280;35226;48.606;8.858;2023-07-13T01:38:27;96309.69;;;24.01;58.77
19023;BME280;35226;48.606;8.858;2023-07-13T01:40:53;96307.78;;;24.09;57.36
19023;BME280;35226;48.606;8.858;2023-07-13T01:43:19;96316.34;;;24.22;57.89
19023;BME280;35226;48.606;8.858;2023-07-13T01:45:44;96311.75;;;24.01;58.49
19023;BME280;35226;48.606;8.858;2023-07-13T01:48:11;96307.84;;;23.85;58.37
19023;BME280;35226;48.606;8.858;2023-07-13T01:50:36;96306.78;;;23.69;59.66
19023;BME280;35226;48.606;8.858;2023-07-13T01:53:02;96314.22;;;23.67;60.39
19023;BME280;35226;48.606;8.858;2023-07-13T01:55:29;96314.16;;;23.72;60.63
19023;BME280;35226;48.606;8.858;2023-07-13T01:57:54;96322.06;;;23.55;62.40
19023;BME280;35226;48.606;8.858;2023-07-13T02:00:19;96311.31;;;23.53;61.63
19023;BME280;35226;48.606;8.858;2023-07-13T02:02:48;96320.50;;;23.30;68.39
19023;BME280;35226;48.606;8.858;2023-07-13T02:05:14;96321.31;;;23.24;68.64
19023;BME280;35226;48.606;8.858;2023-07-13T02:07:40;96321.50;;;23.32;68.69
19023;BME280;35226;48.606;8.858;2023-07-13T02:10:07;96320.50;;;23.30;69.24
19023;BME280;35226;48.606;8.858;2023-07-13T02:12:33;96326.09;;;23.35;66.54
19023;BME280;35226;48.606;8.858;2023-07-13T02:14:59;96325.94;;;23.22;68.63
19023;BME280;35226;48.606;8.858;2023-07-13T02:17:26;96317.25;;;22.96;71.45
19023;BME280;35226;48.606;8.858;2023-07-13T02:19:52;96322.00;;;23.06;69.13
19023;BME280;35226;48.606;8.858;2023-07-13T02:22:18;96316.38;;;23.06;68.07
19023;BME280;35226;48.606;8.858;2023-07-13T02:24:43;96327.59;;;22.82;70.29
19023;BME280;35226;48.606;8.858;2023-07-13T02:27:09;96322.69;;;22.88;68.05
19023;BME280;35226;48.606;8.858;2023-07-13T02:29:34;96323.31;;;22.70;70.40
19023;BME280;35226;48.606;8.858;2023-07-13T02:32:00;96324.84;;;22.76;70.42
19023;BME280;35226;48.606;8.858;2023-07-13T02:34:25;96327.13;;;22.72;70.85
19023;BME280;35226;48.606;8.858;2023-07-13T02:36:50;96340.38;;;22.83;70.21
19023;BME280;35226;48.606;8.858;2023-07-13T02:39:16;96330.91;;;22.86;70.18
19023;BME280;35226;48.606;8.858;2023-07-13T02:41:42;96344.03;;;22.78;73.09
19023;BME280;35226;48.606;8.858;2023-07-13T02:44:07;96338.78;;;22.58;74.64
19023;BME280;35226;48.606;8.858;2023-07-13T02:46:35;96334.19;;;22.55;75.38
19023;BME280;35226;48.606;8.858;2023-07-13T02:49:01;96334.66;;;22.59;75.24
19023;BME280;35226;48.606;8.858;2023-07-13T02:51:27;96330.06;;;22.56;73.92
19023;BME280;35226;48.606;8.858;2023-07-13T02:53:53;96334.75;;;22.47;75.49
19023;BME280;35226;48.606;8.858;2023-07-13T02:56:23;96340.56;;;22.55;76.28
19023;BME280;35226;48.606;8.858;2023-07-13T02:58:49;96335.91;;;22.63;75.15
19023;BME280;35226;48.606;8.858;2023-07-13T03:01:14;96334.28;;;22.73;73.75
19023;BME280;35226;48.606;8.858;2023-07-13T03:03:43;96338.34;;;23.13;69.82
19023;BME280;35226;48.606;8.858;2023-07-13T03:06:09;96332.03;;;22.72;73.62
19023;BME280;35226;48.606;8.858;2023-07-13T03:08:42;96331.59;;;22.57;77.17
19023;BME280;35226;48.606;8.858;2023-07-13T03:11:11;96338.72;;;22.63;76.86
19023;BME280;35226;48.606;8.858;2023-07-13T03:13:40;96338.66;;;22.33;80.92
19023;BME280;35226;48.606;8.858;2023-07-13T03:16:06;96336.22;;;22.54;78.71
19023;BME280;35226;48.606;8.858;2023-07-13T03:18:33;96336.28;;;22.48;78.72
19023;BME280;35226;48.606;8.858;2023-07-13T03:21:03;96344.00;;;22.42;80.16
19023;BME280;35226;48.606;8.858;2023-07-13T03:23:29;96340.31;;;22.18;81.98
19023;BME280;35226;48.606;8.858;2023-07-13T03:26:16;96342.44;;;22.47;76.63
19023;BME280;35226;48.606;8.858;2023-07-13T03:28:43;96350.13;;;22.00;79.67
19023;BME280;35226;48.606;8.858;2023-07-13T03:31:17;96343.25;;;22.36;75.94
19023;BME280;35226;48.606;8.858;2023-07-13T03:33:44;96345.38;;;22.25;77.24
19023;BME280;35226;48.606;8.858;2023-07-13T03:36:14;96349.91;;;22.33;76.51
19023;BME280;35226;48.606;8.858;2023-07-13T03:38:41;96353.81;;;22.30;76.64
19023;BME280;35226;48.606;8.858;2023-07-13T03:41:07;96352.25;;;22.29;76.94
19023;BME280;35226;48.606;8.858;2023-07-13T03:43:32;96355.88;;;22.24;76.71
19023;BME280;35226;48.606;8.858;2023-07-13T03:45:58;96359.63;;;22.38;74.99
19023;BME280;35226;48.606;8.858;2023-07-13T03:48:23;96361.69;;;22.37;73.18
19023;BME280;35226;48.606;8.858;2023-07-13T03:50:49;96356.66;;;22.19;76.44
19023;BME280;35226;48.606;8.858;2023-07-13T03:53:15;96365.06;;;22.30;74.25
19023;BME280;35226;48.606;8.858;2023-07-13T03:55:41;96367.09;;;22.30;74.42
19023;BME280;35226;48.606;8.858;2023-07-13T03:58:32;96368.25;;;22.51;73.38
19023;BME280;35226;48.606;8.858;2023-07-13T04:01:05;96370.69;;;22.25;72.72
19023;BME280;35226;48.606;8.858;2023-07-13T04:03:32;96374.31;;;22.20;74.73
19023;BME280;35226;48.606;8.858;2023-07-13T04:05:59;96374.84;;;22.18;75.30
19023;BME280;35226;48.606;8.858;2023-07-13T04:08:30;96385.06;;;22.15;76.03
19023;BME280;35226;48.606;8.858;2023-07-13T04:10:56;96376.88;;;22.18;75.06
19023;BME280;35226;48.606;8.858;2023-07-13T04:13:22;96389.44;;;22.17;73.17
19023;BME280;35226;48.606;8.858;2023-07-13T04:15:47;96386.13;;;22.12;73.94
19023;BME280;35226;48.606;8.858;2023-07-13T04:18:13;96381.69;;;22.28;70.44
19023;BME280;35226;48.606;8.858;2023-07-13T04:20:38;96375.09;;;22.14;74.83
19023;BME280;35226;48.606;8.858;2023-07-13T04:23:04;96379.50;;;22.10;78.05
19023;BME280;35226;48.606;8.858;2023-07-13T04:25:29;96381.03;;;22.05;79.52
19023;BME280;35226;48.606;8.858;2023-07-13T04:27:54;96382.03;;;22.08;80.37
19023;BME280;35226;48.606;8.858;2023-07-13T04:30:20;96380.44;;;22.24;79.00
19023;BME280;35226;48.606;8.858;2023-07-13T04:32:46;96382.06;;;21.97;81.70
19023;BME280;35226;48.606;8.858;2023-07-13T04:35:11;96380.25;;;22.10;79.73
19023;BME280;35226;48.606;8.858;2023-07-13T04:37:36;96379.50;;;22.04;80.15
19023;BME280;35226;48.606;8.858;2023-07-13T04:40:02;96382.84;;;22.03;82.49
19023;BME280;35226;48.606;8.858;2023-07-13T04:42:29;96380.84;;;21.81;85.44
19023;BME280;35226;48.606;8.858;2023-07-13T04:44:54;96389.56;;;21.72;87.27
19023;BME280;35226;48.606;8.858;2023-07-13T04:47:20;96393.88;;;21.84;86.62
19023;BME280;35226;48.606;8.858;2023-07-13T04:49:45;96390.31;;;21.84;87.30
19023;BME280;35226;48.606;8.858;2023-07-13T04:52:12;96391.09;;;21.67;89.02
19023;BME280;35226;48.606;8.858;2023-07-13T04:54:38;96389.59;;;21.55;90.82
19023;BME280;35226;48.606;8.858;2023-07-13T04:57:04;96391.88;;;21.68;90.88
19023;BME280;35226;48.606;8.858;2023-07-13T04:59:32;96391.09;;;21.73;90.52
19023;BME280;35226;48.606;8.858;2023-07-13T05:01:57;96392.84;;;21.93;87.23
19023;BME280;35226;48.606;8.858;2023-07-13T05:04:23;96398.97;;;21.86;89.51
19023;BME280;35226;48.606;8.858;2023-07-13T05:06:48;96406.56;;;22.19;87.24
19023;BME280;35226;48.606;8.858;2023-07-13T05:09:14;96407.59;;;22.15;89.14
19023;BME280;35226;48.606;8.858;2023-07-13T05:11:39;96407.63;;;22.04;94.05
19023;BME280;35226;48.606;8.858;2023-07-13T05:14:05;96403.03;;;22.07;92.90
19023;BME280;35226;48.606;8.858;2023-07-13T05:16:30;96402.75;;;22.10;94.98
19023;BME280;35226;48.606;8.858;2023-07-13T05:18:57;96399.19;;;22.10;94.31
19023;BME280;35226;48.606;8.858;2023-07-13T05:21:22;96407.34;;;22.13;95.46
19023;BME280;35226;48.606;8.858;2023-07-13T05:23:48;96410.44;;;22.10;93.97
19023;BME280;35226;48.606;8.858;2023-07-13T05:26:13;96412.41;;;22.32;91.57
19023;BME280;35226;48.606;8.858;2023-07-13T05:28:39;96402.06;;;22.45;90.93
19023;BME280;35226;48.606;8.858;2023-07-13T05:31:06;96404.06;;;22.56;89.02
19023;BME280;35226;48.606;8.858;2023-07-13T05:33:32;96416.84;;;22.57;91.46
19023;BME280;35226;48.606;8.858;2023-07-13T05:35:57;96419.78;;;22.35;92.16
19023;BME280;35226;48.606;8.858;2023-07-13T05:38:23;96428.69;;;22.50;90.08
19023;BME280;35226;48.606;8.858;2023-07-13T05:40:50;96431.13;;;22.65;89.94
19023;BME280;35226;48.606;8.858;2023-07-13T05:43:16;96426.78;;;22.64;88.27
19023;BME280;35226;48.606;8.858;2023-07-13T05:45:41;96432.19;;;22.62;86.87
19023;BME280;35226;48.606;8.858;2023-07-13T05:48:06;96436.31;;;22.61;88.64
19023;BME280;35226;48.606;8.858;2023-07-13T05:50:32;96436.63;;;22.46;89.95
19023;BME280;35226;48.606;8.858;2023-07-13T05:52:57;96437.09;;;22.56;87.18
19023;BME280;35226;48.606;8.858;2023-07-13T05:55:23;96444.09;;;22.84;87.48
19023;BME280;35226;48.606;8.858;2023-07-13T05:57:49;96443.25;;;23.01;83.76
19023;BME280;35226;48.606;8.858;2023-07-13T06:00:14;96452.75;;;22.92;82.84
19023;BME280;35226;48.606;8.858;2023-07-13T06:02:40;96451.41;;;23.04;85.12
19023;BME280;35226;48.606;8.858;2023-07-13T06:05:06;96458.81;;;23.07;86.25
19023;BME280;35226;48.606;8.858;2023-07-13T06:07:31;96454.03;;;22.97;90.61
19023;BME280;35226;48.606;8.858;2023-07-13T06:09:57;96458.38;;;22.92;91.13
19023;BME280;35226;48.606;8.858;2023-07-13T06:12:24;96464.22;;;23.05;85.87
19023;BME280;35226;48.606;8.858;2023-07-13T06:14:50;96463.31;;;23.21;79.36
19023;BME280;35226;48.606;8.858;2023-07-13T06:17:15;96462.88;;;23.42;78.67
19023;BME280;35226;48.606;8.858;2023-07-13T06:19:41;96471.06;;;23.45;78.76
19023;BME280;35226;48.606;8.858;2023-07-13T06:22:06;96471.47;;;23.60;77.98
19023;BME280;35226;48.606;8.858;2023-07-13T06:24:32;96472.06;;;23.53;72.33
19023;BME280;35226;48.606;8.858;2023-07-13T06:26:57;96480.59;;;23.07;72.87
19023;BME280;35226;48.606;8.858;2023-07-13T06:29:23;96473.03;;;23.86;66.28
19023;BME280;35226;48.606;8.858;2023-07-13T06:31:48;96473.63;;;24.03;66.76
19023;BME280;35226;48.606;8.858;2023-07-13T06:34:14;96470.84;;;23.73;66.97
19023;BME280;35226;48.606;8.858;2023-07-13T06:36:39;96474.63;;;24.06;59.93
19023;BME280;35226;48.606;8.858;2023-07-13T06:39:06;96474.47;;;23.98;60.18
19023;BME280;35226;48.606;8.858;2023-07-13T06:41:32;96468.63;;;23.90;62.06
19023;BME280;35226;48.606;8.858;2023-07-13T06:43:58;96473.28;;;23.88;57.24
19023;BME280;35226;48.606;8.858;2023-07-13T06:46:25;96477.56;;;24.19;55.37
19023;BME280;35226;48.606;8.858;2023-07-13T06:48:50;96476.97;;;24.02;58.22
19023;BME280;35226;48.606;8.858;2023-07-13T06:51:16;96479.59;;;24.24;56.33
19023;BME280;35226;48.606;8.858;2023-07-13T06:53:41;96476.28;;;23.95;56.98
19023;BME280;35226;48.606;8.858;2023-07-13T06:56:09;96486.25;;;24.21;56.66
19023;BME280;35226;48.606;8.858;2023-07-13T06:58:35;96485.03;;;24.41;55.86
19023;BME280;35226;48.606;8.858;2023-07-13T07:01:01;96483.44;;;24.45;56.31
19023;BME280;35226;48.606;8.858;2023-07-13T07:03:26;96483.75;;;24.17;53.51
19023;BME280;35226;48.606;8.858;2023-07-13T07:05:52;96491.16;;;24.45;54.17
19023;BME280;35226;48.606;8.858;2023-07-13T07:08:18;96487.63;;;24.39;53.98
19023;BME280;35226;48.606;8.858;2023-07-13T07:10:44;96493.44;;;24.46;51.33
19023;BME280;35226;48.606;8.858;2023-07-13T07:13:10;96489.53;;;24.49;51.04
19023;BME280;35226;48.606;8.858;2023-07-13T07:15:36;96489.84;;;24.46;50.18
19023;BME280;35226;48.606;8.858;2023-07-13T07:18:01;96494.38;;;24.30;49.46
19023;BME280;35226;48.606;8.858;2023-07-13T07:20:27;96495.78;;;24.42;48.65
19023;BME280;35226;48.606;8.858;2023-07-13T07:22:52;96485.75;;;24.47;46.31
19023;BME280;35226;48.606;8.858;2023-07-13T07:25:19;96488.88;;;24.81;45.67
19023;BME280;35226;48.606;8.858;2023-07-13T07:27:45;96487.09;;;24.59;47.01
19023;BME280;35226;48.606;8.858;2023-07-13T07:30:11;96480.75;;;24.34;46.35
19023;BME280;35226;48.606;8.858;2023-07-13T07:32:37;96475.38;;;24.74;45.79
19023;BME280;35226;48.606;8.858;2023-07-13T07:35:02;96477.56;;;24.62;44.97
19023;BME280;35226;48.606;8.858;2023-07-13T07:37:28;96478.03;;;24.85;44.98
19023;BME280;35226;48.606;8.858;2023-07-13T07:39:53;96478.50;;;24.89;45.36
19023;BME280;35226;48.606;8.858;2023-07-13T07:42:19;96474.75;;;25.18;45.55
19023;BME280;35226;48.606;8.858;2023-07-13T07:44:44;96478.81;;;25.23;46.40
19023;BME280;35226;48.606;8.858;2023-07-13T07:47:09;96477.59;;;24.99;45.93
19023;BME280;35226;48.606;8.858;2023-07-13T07:49:36;96473.22;;;24.80;44.05
19023;BME280;35226;48.606;8.858;2023-07-13T07:52:01;96477.94;;;25.28;43.97
19023;BME280;35226;48.606;8.858;2023-07-13T07:54:27;96474.69;;;25.05;43.33
19023;BME280;35226;48.606;8.858;2023-07-13T07:56:53;96486.13;;;25.31;42.37
19023;BME280;35226;48.606;8.858;2023-07-13T07:59:19;96483.25;;;24.99;40.77
19023;BME280;35226;48.606;8.858;2023-07-13T08:01:44;96482.41;;;25.04;39.57
19023;BME280;35226;48.606;8.858;2023-07-13T08:04:12;96488.59;;;24.84;39.10
19023;BME280;35226;48.606;8.858;2023-07-13T08:06:37;96497.84;;;25.03;38.92
19023;BME280;35226;48.606;8.858;2023-07-13T08:09:02;96491.91;;;25.07;37.69
19023;BME280;35226;48.606;8.858;2023-07-13T08:11:29;96492.81;;;24.96;38.15
19023;BME280;35226;48.606;8.858;2023-07-13T08:13:55;96493.47;;;24.65;38.01
19023;BME280;35226;48.606;8.858;2023-07-13T08:16:20;96494.28;;;24.79;38.67
19023;BME280;35226;48.606;8.858;2023-07-13T08:18:46;96490.34;;;25.25;38.21
19023;BME280;35226;48.606;8.858;2023-07-13T08:21:12;96490.41;;;25.19;37.78
19023;BME280;35226;48.606;8.858;2023-07-13T08:23:37;96485.28;;;25.18;38.15
19023;BME280;35226;48.606;8.858;2023-07-13T08:26:04;96490.31;;;25.57;39.42
19023;BME280;35226;48.606;8.858;2023-07-13T08:28:30;96487.44;;;25.12;38.53
19023;BME280;35226;48.606;8.858;2023-07-13T08:31:05;96486.38;;;25.15;37.84
19023;BME280;35226;48.606;8.858;2023-07-13T08:33:31;96487.34;;;25.36;38.60
19023;BME280;35226;48.606;8.858;2023-07-13T08:35:56;96486.72;;;25.56;38.63
19023;BME280;35226;48.606;8.858;2023-07-13T08:38:22;96472.47;;;25.80;37.42
19023;BME280;35226;48.606;8.858;2023-07-13T08:40:53;96483.94;;;26.01;38.49
19023;BME280;35226;48.606;8.858;2023-07-13T08:43:35;96488.03;;;25.74;37.97
19023;BME280;35226;48.606;8.858;2023-07-13T08:46:18;96479.44;;;25.79;37.16
19023;BME280;35226;48.606;8.858;2023-07-13T08:48:51;96481.97;;;26.09;37.13
19023;BME280;35226;48.606;8.858;2023-07-13T08:54:02;96475.44;;;26.14;37.09
19023;BME280;35226;48.606;8.858;2023-07-13T08:56:30;96479.56;;;26.00;36.45
19023;BME280;35226;48.606;8.858;2023-07-13T08:58:58;96484.84;;;25.64;37.25
19023;BME280;35226;48.606;8.858;2023-07-13T09:04:19;96487.13;;;26.37;36.90
19023;BME280;35226;48.606;8.858;2023-07-13T09:12:28;96486.13;;;26.48;36.06
19023;BME280;35226;48.606;8.858;2023-07-13T09:14:57;96480.09;;;27.25;35.86
19023;BME280;35226;48.606;8.858;2023-07-13T09:17:27;96483.44;;;27.37;35.13
19023;BME280;35226;48.606;8.858;2023-07-13T09:22:55;96487.53;;;26.68;35.49
19023;BME280;35226;48.606;8.858;2023-07-13T09:25:51;96478.97;;;27.07;35.13
19023;BME280;35226;48.606;8.858;2023-07-13T09:28:27;96474.63;;;27.27;35.58
19023;BME280;35226;48.606;8.858;2023-07-13T09:33:33;96487.84;;;27.58;33.79
19023;BME280;35226;48.606;8.858;2023-07-13T09:36:00;96472.94;;;27.86;34.27
19023;BME280;35226;48.606;8.858;2023-07-13T09:38:29;96472.25;;;27.73;34.86
19023;BME280;35226;48.606;8.858;2023-07-13T09:43:39;96476.84;;;28.04;34.94
19023;BME280;35226;48.606;8.858;2023-07-13T09:46:04;96478.06;;;27.88;34.47
19023;BME280;35226;48.606;8.858;2023-07-13T09:48:43;96468.47;;;28.19;34.49
19023;BME280;35226;48.606;8.858;2023-07-13T09:51:13;96473.72;;;28.44;34.84
19023;BME280;35226;48.606;8.858;2023-07-13T09:53:42;96470.72;;;28.21;33.38
19023;BME280;35226;48.606;8.858;2023-07-13T09:56:29;96472.28;;;28.01;32.93
19023;BME280;35226;48.606;8.858;2023-07-13T09:58:55;96467.53;;;28.24;31.60
19023;BME280;35226;48.606;8.858;2023-07-13T10:01:35;96475.94;;;28.30;31.53
19023;BME280;35226;48.606;8.858;2023-07-13T10:04:02;96470.31;;;28.45;32.03
19023;BME280;35226;48.606;8.858;2023-07-13T10:06:36;96470.41;;;28.96;32.00
19023;BME280;35226;48.606;8.858;2023-07-13T10:09:02;96469.50;;;28.29;30.88
19023;BME280;35226;48.606;8.858;2023-07-13T10:11:29;96477.25;;;28.65;31.04
19023;BME280;35226;48.606;8.858;2023-07-13T10:13:57;96463.81;;;29.17;30.06
19023;BME280;35226;48.606;8.858;2023-07-13T10:16:28;96474.47;;;29.24;31.58
19023;BME280;35226;48.606;8.858;2023-07-13T10:19:19;96471.81;;;29.18;31.06
19023;BME280;35226;48.606;8.858;2023-07-13T10:22:00;96477.50;;;29.26;30.73
19023;BME280;35226;48.606;8.858;2023-07-13T10:24:29;96474.16;;;29.80;30.26
19023;BME280;35226;48.606;8.858;2023-07-13T10:27:24;96479.84;;;29.58;30.83
19023;BME280;35226;48.606;8.858;2023-07-13T10:32:25;96481.88;;;29.27;30.61
19023;BME280;35226;48.606;8.858;2023-07-13T10:34:51;96482.50;;;29.48;30.50
19023;BME280;35226;48.606;8.858;2023-07-13T10:37:23;96479.28;;;29.52;29.13
19023;BME280;35226;48.606;8.858;2023-07-13T10:39:52;96472.44;;;29.77;30.03
19023;BME280;35226;48.606;8.858;2023-07-13T10:42:30;96476.31;;;29.95;29.44
19023;BME280;35226;48.606;8.858;2023-07-13T10:44:57;96474.56;;;30.15;29.90
19023;BME280;35226;48.606;8.858;2023-07-13T10:47:24;96479.31;;;29.97;29.61
19023;BME280;35226;48.606;8.858;2023-07-13T10:49:53;96476.09;;;30.08;28.58
19023;BME280;35226;48.606;8.858;2023-07-13T10:52:46;96464.06;;;30.40;28.24
19023;BME280;35226;48.606;8.858;2023-07-13T10:58:00;96459.50;;;31.08;29.09
19023;BME280;35226;48.606;8.858;2023-07-13T11:00:26;96467.13;;;30.42;27.25
19023;BME280;35226;48.606;8.858;2023-07-13T11:02:59;96465.19;;;30.60;27.83
19023;BME280;35226;48.606;8.858;2023-07-13T11:05:32;96466.75;;;30.31;27.00
19023;BME280;35226;48.606;8.858;2023-07-13T11:10:55;96453.41;;;31.11;26.53
19023;BME280;35226;48.606;8.858;2023-07-13T11:13:57;96454.38;;;31.39;27.28
19023;BME280;35226;48.606;8.858;2023-07-13T11:19:25;96450.00;;;31.38;25.59
19023;BME280;35226;48.606;8.858;2023-07-13T11:30:25;96458.81;;;31.57;25.25
19023;BME280;35226;48.606;8.858;2023-07-13T11:35:43;96456.09;;;31.67;25.94
19023;BME280;35226;48.606;8.858;2023-07-13T11:38:16;96456.38;;;31.21;25.54
19023;BME280;35226;48.606;8.858;2023-07-13T11:40:46;96441.09;;;31.34;25.80
19023;BME280;35226;48.606;8.858;2023-07-13T11:43:15;96450.72;;;31.13;25.75
19023;BME280;35226;48.606;8.858;2023-07-13T11:45:43;96450.69;;;31.78;25.54
19023;BME280;35226;48.606;8.858;2023-07-13T11:48:26;96442.88;;;31.46;26.45
19023;BME280;35226;48.606;8.858;2023-07-13T11:50:59;96435.59;;;32.03;26.22
19023;BME280;35226;48.606;8.858;2023-07-13T11:53:27;96451.66;;;31.73;25.06
19023;BME280;35226;48.606;8.858;2023-07-13T11:55:53;96458.75;;;31.72;23.47
19023;BME280;35226;48.606;8.858;2023-07-13T11:58:24;96448.19;;;32.24;23.50
19023;BME280;35226;48.606;8.858;2023-07-13T12:00:50;96448.03;;;32.40;24.06
19023;BME280;35226;48.606;8.858;2023-07-13T12:03:20;96448.28;;;31.92;24.29
19023;BME280;35226;48.606;8.858;2023-07-13T12:06:04;96451.31;;;32.19;25.10
19023;BME280;35226;48.606;8.858;2023-07-13T12:08:37;96451.28;;;33.05;23.67
19023;BME280;35226;48.606;8.858;2023-07-13T12:11:09;96454.00;;;32.34;22.89
19023;BME280;35226;48.606;8.858;2023-07-13T12:13:38;96446.13;;;32.77;23.25
19023;BME280;35226;48.606;8.858;2023-07-13T12:16:36;96449.97;;;32.89;24.19
19023;BME280;35226;48.606;8.858;2023-07-13T12:19:02;96445.56;;;33.05;24.43
19023;BME280;35226;48.606;8.858;2023-07-13T12:21:33;96447.31;;;33.44;23.81
19023;BME280;35226;48.606;8.858;2023-07-13T12:24:00;96453.00;;;32.56;22.99
19023;BME280;35226;48.606;8.858;2023-07-13T12:26:28;96440.81;;;31.96;23.15
19023;BME280;35226;48.606;8.858;2023-07-13T12:28:55;96449.41;;;32.73;23.26
19023;BME280;35226;48.606;8.858;2023-07-13T12:36:41;96453.16;;;32.93;22.99
19023;BME280;35226;48.606;8.858;2023-07-13T12:39:23;96445.34;;;32.93;22.54
19023;BME280;35226;48.606;8.858;2023-07-13T12:41:50;96449.03;;;33.03;22.66
19023;BME280;35226;48.606;8.858;2023-07-13T12:44:22;96455.22;;;33.27;22.54
19023;BME280;35226;48.606;8.858;2023-07-13T12:47:02;96451.78;;;33.92;22.66
19023;BME280;35226;48.606;8.858;2023-07-13T12:49:31;96450.75;;;33.70;21.97
19023;BME280;35226;48.606;8.858;2023-07-13T12:52:09;96446.56;;;34.17;21.49
19023;BME280;35226;48.606;8.858;2023-07-13T12:54:39;96444.47;;;33.44;21.47
19023;BME280;35226;48.606;8.858;2023-07-13T12:57:04;96450.63;;;33.41;21.67
19023;BME280;35226;48.606;8.858;2023-07-13T12:59:34;96454.13;;;33.76;21.98
19023;BME280;35226;48.606;8.858;2023-07-13T13:02:02;96445.63;;;34.05;21.41
19023;BME280;35226;48.606;8.858;2023-07-13T13:04:28;96450.16;;;34.08;22.45
19023;BME280;35226;48.606;8.858;2023-07-13T13:07:02;96447.22;;;34.35;21.69
19023;BME280;35226;48.606;8.858;2023-07-13T13:09:28;96446.84;;;34.21;21.59
19023;BME280;35226;48.606;8.858;2023-07-13T13:11:54;96452.03;;;34.32;21.12
19023;BME280;35226;48.606;8.858;2023-07-13T13:14:19;96440.41;;;34.30;21.47
19023;BME280;35226;48.606;8.858;2023-07-13T13:16:46;96448.13;;;34.28;21.26
19023;BME280;35226;48.606;8.858;2023-07-13T13:19:26;96442.69;;;34.70;20.58
19023;BME280;35226;48.606;8.858;2023-07-13T13:21:54;96430.47;;;34.50;21.09
19023;BME280;35226;48.606;8.858;2023-07-13T13:24:23;96430.19;;;34.56;20.06
19023;BME280;35226;48.606;8.858;2023-07-13T13:26:50;96438.53;;;35.50;20.85
19023;BME280;35226;48.606;8.858;2023-07-13T13:29:23;96431.63;;;35.84;20.09
19023;BME280;35226;48.606;8.858;2023-07-13T13:31:53;96431.44;;;35.92;20.17
19023;BME280;35226;48.606;8.858;2023-07-13T13:34:20;96441.22;;;35.58;19.42
19023;BME280;35226;48.606;8.858;2023-07-13T13:36:47;96446.16;;;35.07;19.49
19023;BME280;35226;48.606;8.858;2023-07-13T13:41:43;96438.03;;;35.04;20.39
19023;BME280;35226;48.606;8.858;2023-07-13T13:44:09;96425.63;;;34.53;21.17
19023;BME280;35226;48.606;8.858;2023-07-13T13:46:35;96431.69;;;35.05;21.01
19023;BME280;35226;48.606;8.858;2023-07-13T13:49:01;96440.09;;;33.80;20.88
19023;BME280;35226;48.606;8.858;2023-07-13T13:51:26;96435.13;;;33.44;21.11
19023;BME280;35226;48.606;8.858;2023-07-13T13:53:52;96434.69;;;33.84;21.79